createdAt,value
2022-08-15T00:03:10.620Z,87.63
2022-08-15T00:08:49.607Z,87.77
2022-08-15T00:13:41.186Z,88.04
2022-08-15T00:18:48.481Z,88.11
2022-08-15T00:23:53.127Z,88.03
2022-08-15T00:28:58.559Z,88.01
2022-08-15T00:34:03.435Z,87.97
2022-08-15T00:39:33.232Z,88.24
2022-08-15T00:44:52.548Z,88.24
2022-08-15T00:50:05.446Z,88.18
2022-08-15T00:55:18.242Z,88.46
2022-08-15T01:00:45.273Z,88.53
2022-08-15T01:05:53.002Z,88.47
2022-08-15T01:11:02.695Z,88.37
2022-08-15T01:16:09.865Z,88.28
2022-08-15T01:21:22.391Z,88.47
2022-08-15T01:26:41.885Z,88.82
2022-08-15T01:31:50.008Z,88.84
2022-08-15T01:36:55.600Z,88.98
2022-08-15T01:42:19.668Z,89.00
2022-08-15T01:47:43.359Z,88.92
2022-08-15T01:52:59.077Z,89.03
2022-08-15T01:58:13.273Z,89.09
2022-08-15T02:03:20.902Z,89.12
2022-08-15T02:08:35.713Z,89.30
2022-08-15T02:13:40.975Z,89.45
2022-08-15T02:18:47.870Z,89.38
2022-08-15T02:23:55.858Z,89.52
2022-08-15T02:28:59.098Z,89.67
2022-08-15T02:34:17.030Z,90.06
2022-08-15T02:39:21.001Z,90.14
2022-08-15T02:44:27.364Z,89.83
2022-08-15T02:49:35.421Z,90.00
2022-08-15T02:54:59.870Z,90.14
2022-08-15T03:00:18.663Z,90.22
2022-08-15T03:05:31.291Z,90.43
2022-08-15T03:10:39.892Z,90.30
2022-08-15T03:15:45.339Z,90.25
2022-08-15T03:21:05.999Z,90.36
2022-08-15T03:26:25.948Z,90.46
2022-08-15T03:31:41.665Z,90.48
2022-08-15T03:36:52.698Z,90.54
2022-08-15T03:41:56.935Z,90.54
2022-08-15T03:47:02.167Z,90.72
2022-08-15T03:52:08.011Z,90.81
2022-08-15T03:57:11.783Z,91.20
2022-08-15T04:02:30.481Z,91.20
2022-08-15T04:07:40.920Z,91.30
2022-08-15T04:12:46.471Z,91.13
2022-08-15T04:17:56.851Z,91.15
2022-08-15T04:23:02.320Z,91.00
2022-08-15T04:28:28.418Z,90.95
2022-08-15T04:34:01.345Z,91.00
2022-08-15T04:38:57.319Z,90.91
2022-08-15T04:44:00.431Z,90.81
2022-08-15T04:49:08.112Z,90.73
2022-08-15T04:54:15.477Z,90.66
2022-08-15T04:59:35.564Z,90.57
2022-08-15T05:04:40.293Z,90.31
2022-08-15T05:09:59.944Z,90.31
2022-08-15T05:15:07.885Z,90.07
2022-08-15T05:20:17.677Z,89.81
2022-08-15T05:25:21.550Z,89.73
2022-08-15T05:30:29.365Z,89.72
2022-08-15T05:35:35.873Z,89.50
2022-08-15T05:41:06.247Z,89.24
2022-08-15T05:46:33.855Z,88.93
2022-08-15T05:51:54.187Z,88.52
2022-08-15T05:57:26.834Z,87.98
2022-08-15T06:02:50.753Z,87.75
2022-08-15T06:08:01.358Z,87.22
2022-08-15T06:13:10.944Z,86.45
2022-08-15T06:18:16.352Z,86.44
2022-08-15T06:23:45.032Z,85.63
2022-08-15T06:29:12.832Z,84.82
2022-08-15T06:34:45.732Z,84.47
2022-08-15T06:40:27.967Z,84.18
2022-08-15T06:45:36.903Z,83.70
2022-08-15T06:50:53.509Z,83.31
2022-08-15T06:56:05.937Z,82.78
2022-08-15T07:01:19.449Z,82.69
2022-08-15T07:06:36.826Z,82.43
2022-08-15T07:11:54.773Z,81.73
2022-08-15T07:17:19.595Z,81.73
2022-08-15T07:22:35.585Z,81.65
2022-08-15T07:27:56.164Z,81.45
2022-08-15T07:33:00.285Z,80.62
2022-08-15T07:38:30.583Z,79.86
2022-08-15T07:43:36.566Z,78.80
2022-08-15T07:49:11.256Z,78.16
2022-08-15T07:54:34.999Z,77.47
2022-08-15T08:05:54.323Z,76.38
2022-08-15T08:11:13.741Z,75.37
2022-08-15T08:16:30.675Z,74.38
2022-08-15T08:21:58.166Z,73.28
2022-08-15T08:27:24.487Z,72.08
2022-08-15T08:32:35.181Z,71.10
2022-08-15T08:38:30.990Z,70.71
2022-08-15T08:43:55.410Z,69.64
2022-08-15T08:49:21.774Z,68.81
2022-08-15T08:54:54.434Z,68.04
2022-08-15T09:00:04.242Z,67.19
2022-08-15T09:05:24.119Z,66.68
2022-08-15T09:10:36.257Z,65.59
2022-08-15T09:15:47.139Z,65.01
2022-08-15T09:20:58.526Z,64.03
2022-08-15T09:26:19.767Z,63.30
2022-08-15T09:31:40.441Z,61.90
2022-08-15T09:36:56.176Z,60.98
2022-08-15T09:42:35.380Z,59.24
2022-08-15T09:47:57.967Z,58.45
2022-08-15T09:53:01.411Z,58.31
2022-08-15T09:58:27.485Z,57.83
2022-08-15T10:03:53.967Z,57.19
2022-08-15T10:09:00.557Z,56.46
2022-08-15T10:14:13.825Z,55.47
2022-08-15T10:20:00.786Z,55.06
2022-08-15T10:25:29.876Z,54.42
2022-08-15T10:30:59.678Z,54.20
2022-08-15T10:36:20.741Z,53.81
2022-08-15T10:41:40.850Z,53.13
2022-08-15T10:47:01.262Z,52.44
2022-08-15T10:52:34.374Z,52.37
2022-08-15T10:57:47.929Z,51.89
2022-08-15T11:03:11.141Z,51.26
2022-08-15T11:08:19.325Z,50.40
2022-08-15T11:13:24.684Z,49.44
2022-08-15T11:18:35.840Z,48.56
2022-08-15T11:23:42.438Z,47.44
2022-08-15T11:28:56.649Z,47.09
2022-08-15T11:34:01.234Z,46.50
2022-08-15T11:39:27.459Z,46.76
2022-08-15T11:44:53.569Z,45.72
2022-08-15T11:50:08.934Z,45.09
2022-08-15T11:55:35.315Z,44.28
2022-08-15T12:00:40.221Z,44.07
2022-08-15T12:06:08.129Z,43.75
2022-08-15T12:11:35.495Z,42.95
2022-08-15T12:16:51.924Z,42.13
2022-08-15T12:22:53.292Z,41.69
2022-08-15T12:27:25.088Z,41.16
2022-08-15T12:32:38.495Z,40.68
2022-08-15T12:37:44.111Z,40.29
2022-08-15T12:42:56.870Z,39.87
2022-08-15T12:48:07.171Z,39.85
2022-08-15T12:53:11.672Z,39.63
2022-08-15T12:58:19.455Z,39.56
2022-08-15T13:03:39.512Z,39.33
2022-08-15T13:08:55.885Z,38.73
2022-08-15T13:14:01.756Z,38.34
2022-08-15T13:19:16.819Z,38.35
2022-08-15T13:24:27.600Z,38.12
2022-08-15T13:29:33.469Z,37.97
2022-08-15T13:34:45.716Z,37.25
2022-08-15T13:39:55.085Z,37.18
2022-08-15T13:45:00.021Z,36.99
2022-08-15T13:50:17.903Z,36.73
2022-08-15T13:55:29.940Z,36.32
2022-08-15T14:00:57.114Z,36.12
2022-08-15T14:05:58.536Z,35.93
2022-08-15T14:11:13.710Z,35.64
2022-08-15T14:16:57.481Z,35.77
2022-08-15T14:21:49.076Z,35.81
2022-08-15T14:27:13.558Z,34.37
2022-08-15T14:37:58.417Z,32.05
2022-08-15T14:43:03.267Z,30.94
2022-08-15T14:48:31.990Z,28.79
2022-08-15T14:53:33.553Z,28.66
2022-08-15T14:58:40.920Z,27.88
2022-08-15T15:03:56.339Z,27.28
2022-08-15T15:09:01.728Z,26.64
2022-08-15T15:14:06.744Z,26.38
2022-08-15T15:19:16.804Z,25.93
2022-08-15T15:24:30.616Z,25.30
2022-08-15T15:29:46.746Z,25.78
2022-08-15T15:34:54.847Z,26.23
2022-08-15T15:39:58.624Z,26.94
2022-08-15T15:45:05.011Z,27.73
2022-08-15T15:50:25.891Z,28.26
2022-08-15T15:55:30.808Z,28.51
2022-08-15T16:00:37.825Z,29.46
2022-08-15T16:06:58.807Z,30.36
2022-08-15T16:11:20.356Z,31.23
2022-08-15T16:16:43.545Z,32.13
2022-08-15T16:22:19.978Z,33.02
2022-08-15T16:27:40.860Z,34.11
2022-08-15T16:32:49.696Z,35.33
2022-08-15T16:38:03.349Z,36.52
2022-08-15T16:43:54.044Z,37.16
2022-08-15T16:49:23.385Z,37.87
2022-08-15T16:54:52.720Z,38.88
2022-08-15T17:00:18.744Z,39.82
2022-08-15T17:06:03.644Z,40.36
2022-08-15T17:11:17.482Z,40.99
2022-08-15T17:16:27.211Z,41.46
2022-08-15T17:21:47.162Z,42.32
2022-08-15T17:27:27.074Z,43.07
2022-08-15T17:32:30.083Z,43.87
2022-08-15T17:37:44.141Z,44.50
2022-08-15T17:42:48.898Z,45.45
2022-08-15T17:48:29.691Z,46.11
2022-08-15T17:53:54.037Z,46.76
2022-08-15T17:59:09.901Z,47.43
2022-08-15T18:04:14.075Z,48.26
2022-08-15T18:10:43.553Z,49.09
2022-08-15T18:14:52.540Z,50.34
2022-08-15T18:20:42.854Z,51.29
2022-08-15T18:25:47.990Z,52.26
2022-08-15T18:30:59.419Z,52.59
2022-08-15T18:36:11.220Z,53.52
2022-08-15T18:41:30.975Z,54.34
2022-08-15T18:46:37.399Z,54.36
2022-08-15T18:51:56.370Z,54.87
2022-08-15T18:57:06.142Z,55.55
2022-08-15T19:02:35.418Z,55.91
2022-08-15T19:08:26.655Z,56.28
2022-08-15T19:13:57.581Z,56.50
2022-08-15T19:19:15.916Z,57.27
2022-08-15T19:24:28.338Z,57.83
2022-08-15T19:29:54.184Z,58.18
2022-08-15T19:35:31.898Z,58.68
2022-08-15T19:40:43.973Z,59.12
2022-08-15T19:46:12.471Z,59.31
2022-08-15T19:51:39.023Z,59.55
2022-08-15T19:57:01.124Z,59.88
2022-08-15T20:02:27.351Z,60.19
2022-08-15T20:07:44.883Z,60.05
2022-08-15T20:13:12.834Z,60.40
2022-08-15T20:18:39.719Z,60.64
2022-08-15T20:23:45.639Z,61.09
2022-08-15T20:29:14.501Z,61.29
2022-08-15T20:34:47.121Z,61.55
2022-08-15T20:40:03.939Z,61.74
2022-08-15T20:45:13.782Z,62.03
2022-08-15T20:50:24.199Z,62.31
2022-08-15T20:55:33.774Z,62.39
2022-08-15T21:01:18.155Z,62.50
2022-08-15T21:06:36.401Z,62.66
2022-08-15T21:11:56.003Z,63.02
2022-08-15T21:17:17.131Z,62.77
2022-08-15T21:22:45.642Z,62.80
2022-08-15T21:28:06.762Z,62.63
2022-08-15T21:33:39.360Z,62.74
2022-08-15T21:38:56.186Z,62.95
2022-08-15T21:44:08.858Z,63.12
2022-08-15T21:49:36.905Z,63.26
2022-08-15T21:54:51.381Z,63.46
2022-08-15T22:00:22.754Z,63.60
2022-08-15T22:05:34.138Z,63.92
2022-08-15T22:10:38.484Z,64.23
2022-08-15T22:15:42.316Z,64.54
2022-08-15T22:20:46.847Z,64.79
2022-08-15T22:26:00.397Z,65.19
2022-08-15T22:31:09.784Z,65.51
2022-08-15T22:36:19.206Z,66.20
2022-08-15T22:41:27.939Z,66.46
2022-08-15T22:46:43.338Z,66.91
2022-08-15T22:51:55.559Z,67.27
2022-08-15T22:57:02.594Z,67.50
2022-08-15T23:02:18.623Z,67.81
2022-08-15T23:07:26.380Z,68.13
2022-08-15T23:12:35.840Z,68.47
2022-08-15T23:17:49.387Z,68.62
2022-08-15T23:22:53.617Z,68.89
2022-08-15T23:27:59.694Z,69.29
2022-08-15T23:33:08.031Z,69.61
2022-08-15T23:38:33.844Z,69.86
2022-08-15T23:43:55.811Z,70.14
2022-08-15T23:49:00.249Z,70.52
2022-08-15T23:54:05.094Z,70.93
2022-08-15T23:59:16.598Z,71.12
